createdAt,value
2018-11-22T00:00:15.666Z,3.09
2018-11-22T00:05:16.000Z,3.19
2018-11-22T00:10:16.455Z,3.19
2018-11-22T00:15:15.993Z,3.09
2018-11-22T00:20:16.309Z,3.09
2018-11-22T00:25:15.778Z,3.09
2018-11-22T00:30:15.981Z,3.19
2018-11-22T00:35:16.279Z,3.19
2018-11-22T00:40:15.767Z,3.19
2018-11-22T00:45:16.369Z,3.19
2018-11-22T00:50:15.644Z,3.09
2018-11-22T00:55:16.092Z,3.09
2018-11-22T01:00:16.324Z,3.09
2018-11-22T01:05:15.598Z,3.09
2018-11-22T01:10:16.146Z,3.09
2018-11-22T01:15:15.655Z,3.09
2018-11-22T01:20:15.953Z,3.09
2018-11-22T01:25:16.467Z,3.09
2018-11-22T01:30:15.638Z,3.09
2018-11-22T01:35:15.904Z,3.09
2018-11-22T01:40:16.405Z,3.19
2018-11-22T01:45:15.924Z,3.19
2018-11-22T01:50:16.225Z,3.19
2018-11-22T01:55:16.127Z,3.19
2018-11-22T02:00:15.962Z,3.09
2018-11-22T02:05:16.236Z,3.09
2018-11-22T02:10:15.687Z,3.29
2018-11-22T02:15:16.295Z,3.19
2018-11-22T02:20:15.590Z,3.19
2018-11-22T02:25:16.054Z,3.19
2018-11-22T02:30:16.273Z,3.19
2018-11-22T02:35:15.569Z,3.19
2018-11-22T02:40:16.079Z,3.19
2018-11-22T02:45:15.659Z,3.19
2018-11-22T02:50:15.918Z,3.19
2018-11-22T02:55:16.443Z,3.29
2018-11-22T03:00:15.664Z,3.29
2018-11-22T03:05:15.926Z,3.29
2018-11-22T03:10:16.392Z,3.29
2018-11-22T03:15:16.246Z,3.29
2018-11-22T03:20:16.270Z,3.19
2018-11-22T03:25:15.787Z,3.29
2018-11-22T03:30:15.971Z,3.29
2018-11-22T03:35:16.259Z,3.29
2018-11-22T03:40:15.780Z,3.29
2018-11-22T03:45:16.313Z,3.29
2018-11-22T03:50:15.630Z,3.19
2018-11-22T03:55:16.100Z,3.19
2018-11-22T04:00:16.279Z,3.19
2018-11-22T04:05:15.863Z,3.19
2018-11-22T04:10:16.069Z,3.19
2018-11-22T04:15:15.612Z,3.19
2018-11-22T04:20:15.918Z,3.19
2018-11-22T04:25:16.366Z,3.19
2018-11-22T04:30:15.589Z,3.19
2018-11-22T04:35:15.981Z,3.19
2018-11-22T04:40:16.335Z,3.29
2018-11-22T04:45:15.935Z,3.19
2018-11-22T04:50:16.235Z,3.19
2018-11-22T04:55:15.812Z,3.19
2018-11-22T05:00:15.976Z,3.19
2018-11-22T05:05:16.254Z,3.19
2018-11-22T05:10:15.769Z,3.19
2018-11-22T05:15:16.316Z,3.19
2018-11-22T05:20:16.005Z,3.19
2018-11-22T05:25:16.084Z,3.19
2018-11-22T05:30:16.236Z,3.19
2018-11-22T05:35:15.591Z,3.09
2018-11-22T05:40:16.060Z,3.09
2018-11-22T05:45:15.605Z,3.09
2018-11-22T05:50:15.877Z,3.09
2018-11-22T05:55:16.406Z,3.09
2018-11-22T06:00:15.655Z,3.09
2018-11-22T06:05:15.918Z,3.09
2018-11-22T06:10:16.379Z,3.09
2018-11-22T06:15:15.955Z,3.09
2018-11-22T06:20:16.239Z,3.09
2018-11-22T06:25:15.768Z,3.09
2018-11-22T06:30:15.905Z,3.09
2018-11-22T06:35:16.236Z,3.09
2018-11-22T06:40:15.749Z,3.09
2018-11-22T06:45:16.300Z,3.09
2018-11-22T06:50:15.591Z,3.09
2018-11-22T06:55:16.081Z,3.09
2018-11-22T07:00:16.290Z,3.09
2018-11-22T07:05:15.594Z,3.09
2018-11-22T07:10:16.090Z,3.09
2018-11-22T07:15:15.695Z,3.09
2018-11-22T07:20:15.945Z,3.19
2018-11-22T07:25:16.409Z,3.19
2018-11-22T07:30:15.647Z,3.19
2018-11-22T07:35:15.915Z,3.29
2018-11-22T07:40:16.397Z,3.29
2018-11-22T07:45:15.949Z,3.29
2018-11-22T07:50:16.241Z,3.29
2018-11-22T07:55:15.790Z,3.29
2018-11-22T08:00:15.987Z,3.29
2018-11-22T08:05:16.261Z,3.39
2018-11-22T08:10:15.750Z,3.39
2018-11-22T08:15:16.261Z,3.39
2018-11-22T08:20:15.550Z,3.39
2018-11-22T08:25:16.046Z,3.39
2018-11-22T08:30:16.269Z,3.49
2018-11-22T08:35:15.556Z,3.49
2018-11-22T08:40:16.065Z,3.59
2018-11-22T08:45:15.624Z,3.59
2018-11-22T08:50:15.915Z,3.69
2018-11-22T08:55:16.438Z,3.69
2018-11-22T09:00:15.684Z,3.69
2018-11-22T09:05:15.963Z,3.69
2018-11-22T09:10:16.391Z,3.89
2018-11-22T09:15:15.973Z,3.89
2018-11-22T09:20:16.273Z,3.99
2018-11-22T09:25:15.804Z,4.09
2018-11-22T09:30:15.991Z,4.09
2018-11-22T09:35:16.446Z,4.09
2018-11-22T09:40:15.818Z,4.09
2018-11-22T09:45:16.357Z,4.29
2018-11-22T09:50:15.649Z,4.29
2018-11-22T09:55:16.153Z,4.39
2018-11-22T10:00:16.364Z,4.49
2018-11-22T10:05:16.974Z,4.39
2018-11-22T10:10:16.147Z,4.39
2018-11-22T10:15:15.695Z,4.49
2018-11-22T10:20:16.030Z,4.49
2018-11-22T10:25:16.506Z,4.59
2018-11-22T10:30:15.972Z,4.49
2018-11-22T10:35:16.190Z,4.59
2018-11-22T10:40:16.479Z,4.59
2018-11-22T10:45:16.085Z,4.59
2018-11-22T10:50:16.368Z,4.59
2018-11-22T10:55:16.754Z,4.59
2018-11-22T11:00:16.079Z,4.59
2018-11-22T11:05:16.365Z,4.69
2018-11-22T11:10:15.889Z,4.69
2018-11-22T11:15:16.399Z,4.79
2018-11-22T11:20:15.720Z,4.69
2018-11-22T11:25:16.225Z,4.79
2018-11-22T11:30:16.407Z,4.79
2018-11-22T11:35:15.726Z,4.89
2018-11-22T11:40:16.197Z,5.09
2018-11-22T11:45:15.787Z,5.59
2018-11-22T11:50:16.061Z,5.49
2018-11-22T11:55:15.597Z,5.39
2018-11-22T12:00:15.788Z,5.59
2018-11-22T12:05:16.071Z,5.59
2018-11-22T12:10:16.552Z,5.89
2018-11-22T12:15:16.223Z,5.69
2018-11-22T12:20:16.418Z,6.29
2018-11-22T12:25:16.274Z,6.29
2018-11-22T12:30:16.112Z,6.29
2018-11-22T12:35:16.347Z,6.29
2018-11-22T12:40:15.863Z,6.39
2018-11-22T12:45:16.519Z,6.39
2018-11-22T12:50:15.731Z,6.19
2018-11-22T12:55:16.236Z,6.29
2018-11-22T13:00:16.582Z,6.29
2018-11-22T13:05:15.754Z,6.39
2018-11-22T13:10:16.216Z,6.39
2018-11-22T13:15:15.793Z,6.39
2018-11-22T13:20:16.076Z,6.49
2018-11-22T13:25:15.645Z,6.39
2018-11-22T13:30:15.786Z,6.39
2018-11-22T13:35:16.056Z,6.39
2018-11-22T13:40:16.544Z,6.39
2018-11-22T13:45:16.079Z,6.39
2018-11-22T13:50:16.409Z,6.29
2018-11-22T13:55:16.368Z,6.29
2018-11-22T14:00:16.553Z,6.29
2018-11-22T14:05:16.727Z,6.29
2018-11-22T14:10:15.851Z,6.29
2018-11-22T14:15:16.451Z,6.29
2018-11-22T14:20:15.733Z,6.29
2018-11-22T14:25:16.213Z,6.19
2018-11-22T14:30:16.408Z,6.19
2018-11-22T14:35:15.708Z,6.19
2018-11-22T14:40:16.167Z,6.19
2018-11-22T14:45:15.769Z,6.09
2018-11-22T14:50:16.059Z,6.09
2018-11-22T14:55:15.588Z,6.09
2018-11-22T15:00:15.778Z,5.99
2018-11-22T15:05:16.050Z,5.99
2018-11-22T15:10:16.511Z,5.79
2018-11-22T15:15:16.090Z,5.89
2018-11-22T15:20:16.372Z,5.69
2018-11-22T15:25:15.880Z,5.69
2018-11-22T15:30:16.075Z,5.69
2018-11-22T15:35:16.364Z,5.49
2018-11-22T15:40:15.878Z,5.29
2018-11-22T15:45:15.420Z,5.19
2018-11-22T15:50:15.710Z,5.19
2018-11-22T15:55:21.865Z,5.09
2018-11-22T16:00:15.469Z,4.99
2018-11-22T16:05:15.752Z,4.89
2018-11-22T16:10:16.252Z,4.79
2018-11-22T16:15:15.866Z,4.69
2018-11-22T16:20:16.129Z,4.49
2018-11-22T16:25:15.649Z,4.39
2018-11-22T16:30:15.823Z,4.39
2018-11-22T16:35:16.097Z,4.49
2018-11-22T16:40:15.624Z,4.69
2018-11-22T16:45:16.184Z,4.49
2018-11-22T16:50:16.606Z,4.59
2018-11-22T16:55:15.982Z,4.59
2018-11-22T17:00:15.701Z,4.39
2018-11-22T17:05:15.993Z,4.49
2018-11-22T17:10:15.578Z,4.49
2018-11-22T17:15:16.081Z,4.49
2018-11-22T17:20:16.352Z,4.29
2018-11-22T17:25:15.905Z,4.39
2018-11-22T17:30:16.078Z,4.19
2018-11-22T17:35:16.339Z,4.19
2018-11-22T17:40:15.869Z,3.89
2018-11-22T17:45:15.387Z,3.89
2018-11-22T17:50:15.682Z,4.09
2018-11-22T17:55:16.165Z,3.89
2018-11-22T18:00:16.378Z,3.69
2018-11-22T18:05:15.730Z,3.69
2018-11-22T18:10:16.149Z,3.19
2018-11-22T18:15:15.741Z,2.79
2018-11-22T18:20:16.006Z,2.79
2018-11-22T18:25:15.550Z,2.99
2018-11-22T18:30:15.705Z,2.89
2018-11-22T18:35:15.990Z,3.09
2018-11-22T18:40:15.570Z,3.09
2018-11-22T18:45:16.076Z,2.59
2018-11-22T18:50:16.657Z,2.59
2018-11-22T18:55:15.876Z,2.29
2018-11-22T19:00:16.083Z,2.49
2018-11-22T19:05:16.351Z,2.39
2018-11-22T19:10:15.842Z,2.29
2018-11-22T19:15:16.394Z,2.09
2018-11-22T19:20:15.669Z,1.99
2018-11-22T19:25:16.121Z,1.89
2018-11-22T19:30:16.321Z,1.99
2018-11-22T19:35:15.631Z,1.99
2018-11-22T19:40:16.092Z,1.49
2018-11-22T19:45:15.651Z,1.69
2018-11-22T19:50:15.936Z,1.39
2018-11-22T19:55:16.455Z,1.39
2018-11-22T20:00:15.706Z,1.49
2018-11-22T20:05:16.950Z,1.19
2018-11-22T20:10:16.473Z,1.29
2018-11-22T20:15:16.043Z,1.29
2018-11-22T20:20:16.310Z,1.29
2018-11-22T20:25:15.792Z,1.19
2018-11-22T20:30:15.997Z,1.39
2018-11-22T20:35:16.284Z,1.19
2018-11-22T20:40:15.797Z,0.79
2018-11-22T20:45:16.293Z,0.79
2018-11-22T20:50:15.612Z,0.79
2018-11-22T20:55:16.105Z,0.69
2018-11-22T21:00:16.322Z,0.69
2018-11-22T21:05:15.641Z,0.59
2018-11-22T21:10:16.095Z,0.69
2018-11-22T21:15:15.678Z,0.49
2018-11-22T21:20:15.910Z,0.79
2018-11-22T21:25:16.394Z,0.89
2018-11-22T21:30:15.611Z,0.29
2018-11-22T21:35:15.865Z,0.59
2018-11-22T21:40:16.399Z,0.39
2018-11-22T21:45:15.987Z,0.29
2018-11-22T21:50:16.270Z,0.69
2018-11-22T21:55:15.821Z,0.29
2018-11-22T22:00:15.981Z,0.19
2018-11-22T22:05:16.258Z,0.29
2018-11-22T22:10:15.802Z,0.09
2018-11-22T22:15:16.316Z,0.09
2018-11-22T22:20:15.634Z,-0.01
2018-11-22T22:25:16.083Z,-0.11
2018-11-22T22:30:16.312Z,-0.21
2018-11-22T22:35:15.598Z,-0.31
2018-11-22T22:40:16.065Z,-0.31
2018-11-22T22:45:15.651Z,-0.41
2018-11-22T22:50:15.908Z,-0.31
2018-11-22T22:55:17.012Z,-0.01
2018-11-22T23:00:15.626Z,-0.21
2018-11-22T23:05:15.922Z,-0.11
2018-11-22T23:10:16.403Z,0.09
2018-11-22T23:15:15.953Z,-0.51
2018-11-22T23:20:16.244Z,-0.61
2018-11-22T23:25:15.710Z,-0.81
2018-11-22T23:30:15.884Z,-0.61
2018-11-22T23:35:16.174Z,-0.71
2018-11-22T23:40:15.649Z,-0.61
2018-11-22T23:45:16.205Z,-0.51
2018-11-22T23:50:15.509Z,-0.61
2018-11-22T23:55:16.018Z,-0.61
